Time;durP1;ratioP1;P1;durP2;ratioP2;P2;SDS_P1;SDS_P2;PMS_P1;PMS_P2;Temp;Humidity;BMP_temperature;BMP_pressure;BME280_temperature;BME280_humidity;BME280_pressure;Samples;Min_cycle;Max_cycle;Signal;HPM_P1;HPM_P2
2023/03/17 00:01:49;;;;;;;46.50;8.77;;;;;;;;;;5053351;28;20033;-28
2023/03/17 00:04:18;;;;;;;41.10;7.32;;;;;;;;;;5053873;28;20382;-28
2023/03/17 00:06:45;;;;;;;31.48;7.28;;;;;;;;;;5053735;28;20029;-27
2023/03/17 00:09:16;;;;;;;30.38;6.57;;;;;;;;;;5053624;28;20055;-27
2023/03/17 00:11:45;;;;;;;32.90;6.70;;;;;;;;;;5051504;28;20119;-27
2023/03/17 00:14:12;;;;;;;25.30;5.72;;;;;;;;;;5052021;28;20033;-28
2023/03/17 00:16:41;;;;;;;25.40;5.13;;;;;;;;;;5052381;28;20036;-28
2023/03/17 00:19:20;;;;;;;27.63;5.30;;;;;;;;;;5052106;28;20040;-28
2023/03/17 00:21:47;;;;;;;25.65;4.88;;;;;;;;;;5052300;28;20775;-28
2023/03/17 00:24:14;;;;;;;29.70;4.25;;;;;;;;;;5052241;28;20141;-27
2023/03/17 00:26:42;;;;;;;14.35;3.35;;;;;;;;;;5051551;28;20039;-27
2023/03/17 00:29:09;;;;;;;25.55;3.83;;;;;;;;;;5053815;28;20457;-28
2023/03/17 00:31:36;;;;;;;26.55;3.75;;;;;;;;;;5054948;28;20075;-27
2023/03/17 00:34:04;;;;;;;21.98;4.13;;;;;;;;;;5050517;28;20036;-28
2023/03/17 00:36:33;;;;;;;29.48;4.05;;;;;;;;;;5051709;28;20044;-28
2023/03/17 00:39:00;;;;;;;25.80;3.60;;;;;;;;;;5051386;28;20028;-28
2023/03/17 00:41:28;;;;;;;25.25;3.85;;;;;;;;;;5051164;28;20407;-33
2023/03/17 00:43:56;;;;;;;22.98;3.83;;;;;;;;;;5051728;28;20037;-34
2023/03/17 00:46:34;;;;;;;26.10;3.83;;;;;;;;;;5051348;28;20040;-35
2023/03/17 00:49:11;;;;;;;13.85;3.35;;;;;;;;;;5051186;28;20441;-34
2023/03/17 00:51:38;;;;;;;20.65;3.70;;;;;;;;;;5050194;28;20029;-35
2023/03/17 00:54:06;;;;;;;29.67;3.63;;;;;;;;;;5050915;28;20086;-33
2023/03/17 00:56:33;;;;;;;24.45;3.45;;;;;;;;;;5050043;28;20037;-33
2023/03/17 00:59:01;;;;;;;11.30;2.92;;;;;;;;;;5058066;28;20033;-32
2023/03/17 01:01:28;;;;;;;12.93;3.13;;;;;;;;;;5054174;28;20021;-32
2023/03/17 01:03:56;;;;;;;17.92;3.45;;;;;;;;;;5041068;28;20041;-29
2023/03/17 01:06:23;;;;;;;16.00;3.15;;;;;;;;;;5050396;28;20425;-29
2023/03/17 01:08:51;;;;;;;16.27;3.50;;;;;;;;;;5051272;28;20483;-28
2023/03/17 01:11:19;;;;;;;15.80;3.30;;;;;;;;;;5051847;28;20082;-29
2023/03/17 01:13:46;;;;;;;15.70;3.35;;;;;;;;;;5051539;28;20418;-29
2023/03/17 01:16:14;;;;;;;14.45;3.47;;;;;;;;;;5051789;28;20044;-29
2023/03/17 01:18:41;;;;;;;15.45;3.55;;;;;;;;;;5051974;28;20845;-29
2023/03/17 01:21:08;;;;;;;14.15;3.38;;;;;;;;;;5049513;28;20439;-29
2023/03/17 01:23:36;;;;;;;13.85;3.13;;;;;;;;;;5050672;28;20049;-29
2023/03/17 01:26:03;;;;;;;12.57;3.15;;;;;;;;;;5050858;28;20033;-29
2023/03/17 01:28:30;;;;;;;13.15;3.10;;;;;;;;;;5051010;28;20478;-29
2023/03/17 01:30:57;;;;;;;13.73;3.78;;;;;;;;;;5048442;28;20554;-29
2023/03/17 01:33:25;;;;;;;19.75;3.90;;;;;;;;;;5049568;28;20027;-30
2023/03/17 01:35:52;;;;;;;19.92;3.83;;;;;;;;;;5047745;28;20037;-30
2023/03/17 01:38:19;;;;;;;11.63;3.83;;;;;;;;;;5047705;28;20376;-33
2023/03/17 01:40:50;;;;;;;13.40;3.58;;;;;;;;;;5049171;28;20036;-33
2023/03/17 01:43:35;;;;;;;13.23;4.03;;;;;;;;;;5043472;28;20060;-32
2023/03/17 01:46:20;;;;;;;9.13;4.95;;;;;;;;;;5041316;28;20056;-29
2023/03/17 01:48:51;;;;;;;17.13;5.40;;;;;;;;;;5041792;28;20361;-30
2023/03/17 01:51:41;;;;;;;12.60;5.53;;;;;;;;;;5040623;28;20776;-29
2023/03/17 01:54:11;;;;;;;21.88;5.85;;;;;;;;;;5044706;28;20037;-30
2023/03/17 01:56:42;;;;;;;16.65;5.68;;;;;;;;;;5051447;28;20032;-29
2023/03/17 01:59:13;;;;;;;12.85;4.82;;;;;;;;;;5051332;28;20487;-29
2023/03/17 02:01:42;;;;;;;8.85;3.58;;;;;;;;;;5051267;28;20112;-30
2023/03/17 02:04:11;;;;;;;16.48;4.38;;;;;;;;;;5051496;28;20021;-30
2023/03/17 02:06:39;;;;;;;11.48;3.38;;;;;;;;;;5051299;28;20412;-30
2023/03/17 02:09:07;;;;;;;14.50;3.50;;;;;;;;;;5051201;28;20392;-30
2023/03/17 02:11:34;;;;;;;13.52;3.10;;;;;;;;;;5051198;28;20040;-30
2023/03/17 02:14:02;;;;;;;13.65;3.40;;;;;;;;;;5051149;28;20064;-30
2023/03/17 02:16:31;;;;;;;13.82;3.13;;;;;;;;;;5051393;28;20031;-30
2023/03/17 02:18:59;;;;;;;7.25;2.90;;;;;;;;;;5051108;28;20061;-30
2023/03/17 02:21:41;;;;;;;16.10;2.72;;;;;;;;;;5051202;28;20031;-30
2023/03/17 02:24:10;;;;;;;8.40;2.30;;;;;;;;;;5052173;28;20036;-29
2023/03/17 02:26:38;;;;;;;12.68;2.50;;;;;;;;;;5055362;28;20259;-29
2023/03/17 02:29:05;;;;;;;11.93;2.60;;;;;;;;;;5055414;28;20037;-30
2023/03/17 02:31:34;;;;;;;8.18;2.45;;;;;;;;;;5055243;28;20091;-30
2023/03/17 02:34:01;;;;;;;4.68;2.05;;;;;;;;;;5055038;28;20033;-30
2023/03/17 02:36:28;;;;;;;14.15;2.58;;;;;;;;;;5055181;28;20029;-29
2023/03/17 02:38:56;;;;;;;8.50;2.22;;;;;;;;;;5055095;28;20499;-30
2023/03/17 02:41:23;;;;;;;8.75;1.90;;;;;;;;;;5048594;28;20033;-30
2023/03/17 02:43:52;;;;;;;15.93;2.70;;;;;;;;;;5043303;28;20112;-30
2023/03/17 02:46:19;;;;;;;17.05;2.38;;;;;;;;;;5051389;28;20028;-30
2023/03/17 02:48:46;;;;;;;7.30;2.20;;;;;;;;;;5054475;28;20060;-29
2023/03/17 02:51:13;;;;;;;9.10;2.38;;;;;;;;;;5054214;28;20040;-29
2023/03/17 02:53:40;;;;;;;12.50;2.40;;;;;;;;;;5040242;28;20033;-30
2023/03/17 02:56:08;;;;;;;8.00;1.80;;;;;;;;;;5035177;28;20025;-29
2023/03/17 02:58:36;;;;;;;13.07;1.92;;;;;;;;;;5034916;28;20507;-29
2023/03/17 03:01:02;;;;;;;6.53;2.00;;;;;;;;;;5035136;28;20099;-29
2023/03/17 03:03:30;;;;;;;7.50;1.98;;;;;;;;;;5035160;28;20029;-29
2023/03/17 03:05:57;;;;;;;11.90;1.90;;;;;;;;;;5034793;28;20079;-29
2023/03/17 03:08:25;;;;;;;10.85;1.92;;;;;;;;;;5034599;28;20041;-29
2023/03/17 03:10:53;;;;;;;12.35;1.98;;;;;;;;;;5034619;28;20045;-29
2023/03/17 03:13:20;;;;;;;10.15;2.30;;;;;;;;;;5034802;28;20140;-29
2023/03/17 03:15:47;;;;;;;17.75;2.83;;;;;;;;;;5034701;28;20025;-29
2023/03/17 03:18:14;;;;;;;12.25;2.47;;;;;;;;;;5034704;28;20029;-30
2023/03/17 03:20:43;;;;;;;14.02;2.80;;;;;;;;;;5034677;28;20030;-30
2023/03/17 03:23:10;;;;;;;21.85;2.60;;;;;;;;;;5034743;28;20790;-30
2023/03/17 03:25:37;;;;;;;22.98;3.15;;;;;;;;;;5034526;28;20053;-29
2023/03/17 03:28:08;;;;;;;12.55;2.42;;;;;;;;;;5034501;28;20481;-30
2023/03/17 03:30:36;;;;;;;15.43;2.60;;;;;;;;;;5034326;28;20052;-30
2023/03/17 03:33:03;;;;;;;10.75;2.60;;;;;;;;;;5034379;28;20026;-30
2023/03/17 03:35:31;;;;;;;9.88;2.40;;;;;;;;;;5033843;28;20100;-30
2023/03/17 03:37:58;;;;;;;14.65;2.92;;;;;;;;;;5034326;28;20025;-30
2023/03/17 03:40:25;;;;;;;10.85;2.47;;;;;;;;;;5034170;28;20025;-29
2023/03/17 03:42:53;;;;;;;12.20;2.70;;;;;;;;;;5033916;28;20060;-29
2023/03/17 03:45:20;;;;;;;12.45;2.45;;;;;;;;;;5034191;28;20109;-29
2023/03/17 03:47:47;;;;;;;15.57;2.72;;;;;;;;;;5034190;28;20103;-30
2023/03/17 03:50:14;;;;;;;15.45;2.45;;;;;;;;;;5034021;28;20037;-30
2023/03/17 03:52:41;;;;;;;10.75;2.13;;;;;;;;;;5034078;28;20030;-29
2023/03/17 03:55:08;;;;;;;11.80;2.30;;;;;;;;;;5034093;28;20083;-30
2023/03/17 03:57:35;;;;;;;11.48;2.47;;;;;;;;;;5034047;28;20040;-30
2023/03/17 04:00:04;;;;;;;14.50;2.95;;;;;;;;;;5033878;28;20033;-29
2023/03/17 04:02:31;;;;;;;11.25;2.28;;;;;;;;;;5033882;28;20570;-29
2023/03/17 04:04:58;;;;;;;17.67;2.97;;;;;;;;;;5033786;28;20025;-32
2023/03/17 04:07:25;;;;;;;9.23;2.30;;;;;;;;;;5033838;28;20105;-29
2023/03/17 04:09:52;;;;;;;9.95;2.28;;;;;;;;;;5033710;28;20095;-30
2023/03/17 04:12:19;;;;;;;8.38;2.20;;;;;;;;;;5033682;28;20140;-29
2023/03/17 04:14:46;;;;;;;18.60;2.53;;;;;;;;;;5033638;28;20053;-29
2023/03/17 04:17:14;;;;;;;12.45;2.60;;;;;;;;;;5033708;28;20515;-30
2023/03/17 04:19:41;;;;;;;9.50;2.40;;;;;;;;;;5033418;28;20441;-29
2023/03/17 04:22:11;;;;;;;8.82;2.20;;;;;;;;;;5033463;28;20043;-29
2023/03/17 04:24:38;;;;;;;12.23;2.53;;;;;;;;;;5033529;28;20026;-29
2023/03/17 04:27:05;;;;;;;4.07;1.92;;;;;;;;;;5033305;28;20021;-29
2023/03/17 04:29:32;;;;;;;14.57;2.25;;;;;;;;;;5033303;28;20384;-29
2023/03/17 04:31:59;;;;;;;6.90;2.25;;;;;;;;;;5033368;28;20034;-29
2023/03/17 04:34:26;;;;;;;7.72;2.60;;;;;;;;;;5033278;28;20057;-29
2023/03/17 04:36:53;;;;;;;10.15;2.70;;;;;;;;;;5033214;28;20045;-29
2023/03/17 04:39:20;;;;;;;6.55;2.05;;;;;;;;;;5032075;28;20122;-29
2023/03/17 04:41:47;;;;;;;13.82;2.30;;;;;;;;;;5031966;28;20123;-30
2023/03/17 04:44:14;;;;;;;10.90;2.35;;;;;;;;;;5043309;28;20029;-29
2023/03/17 04:46:41;;;;;;;9.02;1.92;;;;;;;;;;5050316;28;20044;-30
2023/03/17 04:49:08;;;;;;;10.02;2.20;;;;;;;;;;5051263;28;20033;-30
2023/03/17 04:51:35;;;;;;;9.32;2.55;;;;;;;;;;5051213;28;20031;-29
2023/03/17 04:54:02;;;;;;;10.70;2.70;;;;;;;;;;5052381;28;20032;-29
2023/03/17 04:56:30;;;;;;;7.47;2.53;;;;;;;;;;5052536;28;20124;-29
2023/03/17 04:58:57;;;;;;;7.53;2.95;;;;;;;;;;5052489;28;20483;-29
2023/03/17 05:01:25;;;;;;;8.02;2.42;;;;;;;;;;5052645;28;20395;-29
2023/03/17 05:03:52;;;;;;;8.18;2.05;;;;;;;;;;5052033;28;20029;-29
2023/03/17 05:06:19;;;;;;;9.00;2.80;;;;;;;;;;5051860;28;20079;-29
2023/03/17 05:08:46;;;;;;;5.95;2.05;;;;;;;;;;5051850;28;20036;-28
2023/03/17 05:11:13;;;;;;;9.88;2.22;;;;;;;;;;5051692;28;20049;-29
2023/03/17 05:13:40;;;;;;;8.35;2.60;;;;;;;;;;5052242;28;20490;-29
2023/03/17 05:16:08;;;;;;;6.28;2.47;;;;;;;;;;5052466;28;20298;-29
2023/03/17 05:18:35;;;;;;;7.65;2.10;;;;;;;;;;5052377;28;20028;-29
2023/03/17 05:21:03;;;;;;;9.45;2.33;;;;;;;;;;5052383;28;20036;-29
2023/03/17 05:23:29;;;;;;;7.55;2.40;;;;;;;;;;5052158;28;20391;-29
2023/03/17 05:25:57;;;;;;;9.60;2.42;;;;;;;;;;5052308;28;20079;-29
2023/03/17 05:28:24;;;;;;;9.88;2.10;;;;;;;;;;5052212;28;20059;-28
2023/03/17 05:30:51;;;;;;;6.75;2.20;;;;;;;;;;5051949;28;20483;-29
2023/03/17 05:33:19;;;;;;;5.97;2.10;;;;;;;;;;5052123;28;20039;-28
2023/03/17 05:35:46;;;;;;;13.77;2.42;;;;;;;;;;5052202;28;20048;-28
2023/03/17 05:38:14;;;;;;;23.52;3.00;;;;;;;;;;5052083;28;20544;-28
2023/03/17 05:40:42;;;;;;;10.68;2.50;;;;;;;;;;5051958;28;20044;-29
2023/03/17 05:43:09;;;;;;;9.93;2.40;;;;;;;;;;5051898;28;20049;-28
2023/03/17 05:45:36;;;;;;;7.30;2.35;;;;;;;;;;5051976;28;20105;-28
2023/03/17 05:48:03;;;;;;;5.72;2.00;;;;;;;;;;5051896;28;20037;-28
2023/03/17 05:50:30;;;;;;;29.33;3.35;;;;;;;;;;5051809;28;20067;-28
2023/03/17 05:52:57;;;;;;;10.70;1.73;;;;;;;;;;5051710;28;20044;-29
2023/03/17 05:55:25;;;;;;;16.67;1.80;;;;;;;;;;5050530;28;20434;-29
2023/03/17 05:57:52;;;;;;;10.05;1.63;;;;;;;;;;5051359;28;20027;-29
2023/03/17 06:00:20;;;;;;;11.05;1.70;;;;;;;;;;5051783;28;20437;-28
2023/03/17 06:02:47;;;;;;;10.70;1.50;;;;;;;;;;5049077;28;20390;-28
2023/03/17 06:05:14;;;;;;;20.35;1.90;;;;;;;;;;5051698;28;20033;-28
2023/03/17 06:07:41;;;;;;;8.40;1.20;;;;;;;;;;5050349;28;20483;-28
2023/03/17 06:10:08;;;;;;;7.68;1.27;;;;;;;;;;5051054;28;20398;-28
2023/03/17 06:12:35;;;;;;;5.22;1.40;;;;;;;;;;5051481;28;20506;-29
2023/03/17 06:15:02;;;;;;;4.60;1.40;;;;;;;;;;5051628;28;20025;-30
2023/03/17 06:17:29;;;;;;;4.65;1.35;;;;;;;;;;5051414;28;20025;-29
2023/03/17 06:19:56;;;;;;;8.80;1.38;;;;;;;;;;5051323;28;20036;-28
2023/03/17 06:22:23;;;;;;;6.40;1.20;;;;;;;;;;5051356;28;20399;-29
2023/03/17 06:24:52;;;;;;;7.63;1.20;;;;;;;;;;5051528;28;20171;-29
2023/03/17 06:27:19;;;;;;;5.35;1.23;;;;;;;;;;5051445;28;20029;-29
2023/03/17 06:29:46;;;;;;;4.20;1.13;;;;;;;;;;5051384;28;20029;-29
2023/03/17 06:32:13;;;;;;;5.75;2.25;;;;;;;;;;5051442;28;20487;-29
2023/03/17 06:34:41;;;;;;;3.65;1.27;;;;;;;;;;5051425;28;20032;-30
2023/03/17 06:37:09;;;;;;;5.53;1.13;;;;;;;;;;5051345;28;20032;-28
2023/03/17 06:39:36;;;;;;;4.25;1.30;;;;;;;;;;5051380;28;20044;-28
2023/03/17 06:42:03;;;;;;;3.63;1.00;;;;;;;;;;5051016;28;20727;-29
2023/03/17 06:44:30;;;;;;;2.60;1.40;;;;;;;;;;5051282;28;20033;-28
2023/03/17 06:46:57;;;;;;;6.10;1.60;;;;;;;;;;5051362;28;20059;-29
2023/03/17 06:49:24;;;;;;;2.63;1.10;;;;;;;;;;5051152;28;20088;-29
2023/03/17 06:51:51;;;;;;;4.72;1.40;;;;;;;;;;5051231;28;20037;-29
2023/03/17 06:54:19;;;;;;;6.93;1.50;;;;;;;;;;5051200;28;20041;-30
2023/03/17 06:56:46;;;;;;;6.07;1.67;;;;;;;;;;5051467;28;20110;-28
2023/03/17 06:59:13;;;;;;;4.60;1.67;;;;;;;;;;5051178;28;20021;-29
2023/03/17 07:01:40;;;;;;;3.78;1.50;;;;;;;;;;5050917;28;20102;-29
2023/03/17 07:04:08;;;;;;;8.02;2.05;;;;;;;;;;5051121;28;20036;-29
2023/03/17 07:06:35;;;;;;;8.80;2.08;;;;;;;;;;5050770;28;20033;-29
2023/03/17 07:09:02;;;;;;;8.23;2.25;;;;;;;;;;5051042;28;20025;-28
2023/03/17 07:11:29;;;;;;;5.55;1.80;;;;;;;;;;5053572;28;20049;-28
2023/03/17 07:13:56;;;;;;;5.90;2.30;;;;;;;;;;5054886;28;20025;-29
2023/03/17 07:16:23;;;;;;;7.18;2.30;;;;;;;;;;5054866;28;20025;-28
2023/03/17 07:18:50;;;;;;;4.53;2.30;;;;;;;;;;5054810;28;20041;-29
2023/03/17 07:21:17;;;;;;;6.53;2.92;;;;;;;;;;5053304;28;20387;-28
2023/03/17 07:23:44;;;;;;;8.35;2.88;;;;;;;;;;5054693;28;20041;-28
2023/03/17 07:26:12;;;;;;;6.80;2.58;;;;;;;;;;5054506;28;20489;-29
2023/03/17 07:28:39;;;;;;;7.88;2.85;;;;;;;;;;5054403;28;20398;-29
2023/03/17 07:31:08;;;;;;;6.18;2.85;;;;;;;;;;5054386;28;20079;-29
2023/03/17 07:33:35;;;;;;;5.35;2.70;;;;;;;;;;5054407;28;20390;-29
2023/03/17 07:36:03;;;;;;;8.30;2.70;;;;;;;;;;5054442;28;20541;-30
2023/03/17 07:38:30;;;;;;;10.90;2.63;;;;;;;;;;5054108;28;20037;-28
2023/03/17 07:40:58;;;;;;;12.25;2.72;;;;;;;;;;5054401;28;20378;-29
2023/03/17 07:43:28;;;;;;;6.75;2.15;;;;;;;;;;5053907;28;20102;-29
2023/03/17 07:45:55;;;;;;;7.28;2.22;;;;;;;;;;5054295;28;20037;-27
2023/03/17 07:48:22;;;;;;;8.07;1.70;;;;;;;;;;5054079;28;20025;-28
2023/03/17 07:50:49;;;;;;;4.60;1.60;;;;;;;;;;5054049;28;20029;-28
2023/03/17 07:53:17;;;;;;;7.78;1.65;;;;;;;;;;5054271;28;20029;-27
2023/03/17 07:55:44;;;;;;;7.15;1.70;;;;;;;;;;5053943;28;20029;-27
2023/03/17 07:58:11;;;;;;;15.90;1.52;;;;;;;;;;5053999;28;20033;-28
2023/03/17 08:00:38;;;;;;;6.32;1.70;;;;;;;;;;5053978;28;20048;-27
2023/03/17 08:03:05;;;;;;;6.38;1.52;;;;;;;;;;5053978;28;20036;-27
2023/03/17 08:05:33;;;;;;;2.72;1.30;;;;;;;;;;5053862;28;20074;-27
2023/03/17 08:08:00;;;;;;;4.38;1.30;;;;;;;;;;5053430;28;20033;-28
2023/03/17 08:10:27;;;;;;;4.97;1.23;;;;;;;;;;5053732;28;20021;-27
2023/03/17 08:12:54;;;;;;;5.60;1.27;;;;;;;;;;5053475;28;20120;-27
2023/03/17 08:15:21;;;;;;;3.17;0.88;;;;;;;;;;5053580;28;20112;-27
2023/03/17 08:17:48;;;;;;;2.97;1.20;;;;;;;;;;5053557;28;20490;-30
2023/03/17 08:20:15;;;;;;;5.07;1.23;;;;;;;;;;5053522;28;20044;-27
2023/03/17 08:22:42;;;;;;;8.73;1.23;;;;;;;;;;5053446;28;20074;-28
2023/03/17 08:25:11;;;;;;;7.03;1.40;;;;;;;;;;5052012;28;20089;-28
2023/03/17 08:27:38;;;;;;;11.75;1.27;;;;;;;;;;5053101;28;20163;-27
2023/03/17 08:30:05;;;;;;;5.55;1.27;;;;;;;;;;5053361;28;20036;-27
2023/03/17 08:32:32;;;;;;;4.50;1.15;;;;;;;;;;5053203;28;20145;-28
2023/03/17 08:35:00;;;;;;;4.25;1.20;;;;;;;;;;5053219;28;20029;-28
2023/03/17 08:37:27;;;;;;;6.28;1.02;;;;;;;;;;5053011;28;20048;-28
2023/03/17 08:39:54;;;;;;;4.50;1.02;;;;;;;;;;5053216;28;20021;-28
2023/03/17 08:42:21;;;;;;;4.60;1.00;;;;;;;;;;5052884;28;20522;-29
2023/03/17 08:44:48;;;;;;;6.65;1.35;;;;;;;;;;5053073;28;20108;-28
2023/03/17 08:47:15;;;;;;;4.80;1.15;;;;;;;;;;5053085;28;20021;-28
2023/03/17 08:49:42;;;;;;;7.68;1.35;;;;;;;;;;5053013;28;20060;-28
2023/03/17 08:52:09;;;;;;;5.03;1.20;;;;;;;;;;5052817;28;20041;-29
2023/03/17 08:54:37;;;;;;;5.25;1.10;;;;;;;;;;5052926;28;20111;-28
2023/03/17 08:57:03;;;;;;;7.10;1.50;;;;;;;;;;5052868;28;20037;-29
2023/03/17 08:59:31;;;;;;;4.32;1.30;;;;;;;;;;5052827;28;20032;-28
2023/03/17 09:01:59;;;;;;;5.40;1.20;;;;;;;;;;5052693;28;20033;-29
2023/03/17 09:04:27;;;;;;;7.40;1.50;;;;;;;;;;5039636;28;20545;-28
2023/03/17 09:06:54;;;;;;;8.38;1.30;;;;;;;;;;5032051;28;20034;-28
2023/03/17 09:09:21;;;;;;;6.75;1.40;;;;;;;;;;5032019;28;20029;-28
2023/03/17 09:11:48;;;;;;;5.32;1.40;;;;;;;;;;5030213;28;20041;-28
2023/03/17 09:14:14;;;;;;;6.90;1.40;;;;;;;;;;5027406;28;20033;-28
2023/03/17 09:16:41;;;;;;;4.25;1.40;;;;;;;;;;5032475;28;20030;-28
2023/03/17 09:19:09;;;;;;;5.05;1.27;;;;;;;;;;5026536;28;20487;-28
2023/03/17 09:21:36;;;;;;;3.63;1.08;;;;;;;;;;5017307;28;20041;-29
2023/03/17 09:24:03;;;;;;;2.92;1.27;;;;;;;;;;5012544;28;20040;-28
2023/03/17 09:26:30;;;;;;;5.05;1.30;;;;;;;;;;5021124;28;20033;-29
2023/03/17 09:28:58;;;;;;;4.75;1.23;;;;;;;;;;5030375;28;20487;-28
2023/03/17 09:31:25;;;;;;;6.68;1.20;;;;;;;;;;5030829;28;20045;-28
2023/03/17 09:33:52;;;;;;;5.43;1.27;;;;;;;;;;5029437;28;20033;-28
2023/03/17 09:36:19;;;;;;;5.38;1.13;;;;;;;;;;5023668;28;20030;-29
2023/03/17 09:38:46;;;;;;;4.70;1.45;;;;;;;;;;5022852;28;20514;-28
2023/03/17 09:41:19;;;;;;;7.32;1.15;;;;;;;;;;5021962;28;20479;-29
2023/03/17 09:44:04;;;;;;;6.95;1.20;;;;;;;;;;5021516;28;20042;-29
2023/03/17 09:46:31;;;;;;;4.80;1.25;;;;;;;;;;5022894;28;20048;-29
2023/03/17 09:49:09;;;;;;;8.23;2.20;;;;;;;;;;5031383;28;20064;-28
2023/03/17 09:51:36;;;;;;;6.03;1.40;;;;;;;;;;5031563;28;20415;-28
2023/03/17 09:54:04;;;;;;;12.43;1.58;;;;;;;;;;5031928;28;20033;-28
2023/03/17 09:56:32;;;;;;;4.55;1.25;;;;;;;;;;5031749;28;20364;-28
2023/03/17 09:59:02;;;;;;;6.25;1.50;;;;;;;;;;5031808;28;20026;-28
2023/03/17 10:01:29;;;;;;;4.60;1.20;;;;;;;;;;5031607;28;20415;-28
2023/03/17 10:03:56;;;;;;;3.58;1.00;;;;;;;;;;5031809;28;20033;-28
2023/03/17 10:06:43;;;;;;;6.47;1.52;;;;;;;;;;5017725;28;20030;-29
2023/03/17 10:09:22;;;;;;;4.85;1.33;;;;;;;;;;5011826;28;20025;-28
2023/03/17 10:12:08;;;;;;;3.63;1.13;;;;;;;;;;5011941;28;20109;-29
2023/03/17 10:14:54;;;;;;;4.50;1.05;;;;;;;;;;5010740;28;20109;-29
2023/03/17 10:17:22;;;;;;;4.72;1.25;;;;;;;;;;5011936;28;20030;-28
2023/03/17 10:19:55;;;;;;;6.38;1.00;;;;;;;;;;5011712;28;20400;-29
2023/03/17 10:22:29;;;;;;;2.35;0.88;;;;;;;;;;5011833;28;20056;-28
2023/03/17 10:24:59;;;;;;;3.13;1.15;;;;;;;;;;5011795;28;20033;-28
2023/03/17 10:27:26;;;;;;;5.40;1.00;;;;;;;;;;5011725;28;20036;-28
2023/03/17 10:29:53;;;;;;;1.83;1.00;;;;;;;;;;5020259;28;20028;-28
2023/03/17 10:32:21;;;;;;;2.00;0.90;;;;;;;;;;5031495;28;20029;-28
2023/03/17 10:34:48;;;;;;;2.75;1.15;;;;;;;;;;5031483;28;20041;-28
2023/03/17 10:37:18;;;;;;;3.28;1.00;;;;;;;;;;5031525;28;20032;-28
2023/03/17 10:39:47;;;;;;;3.40;1.13;;;;;;;;;;5030879;28;20034;-28
2023/03/17 10:42:21;;;;;;;3.55;1.10;;;;;;;;;;5026503;28;20410;-28
2023/03/17 10:45:12;;;;;;;2.85;1.05;;;;;;;;;;5031341;28;20075;-28
2023/03/17 10:47:49;;;;;;;3.88;0.90;;;;;;;;;;5030576;28;20065;-29
2023/03/17 10:50:24;;;;;;;2.25;0.93;;;;;;;;;;5034914;28;20064;-28
2023/03/17 10:53:04;;;;;;;2.75;1.20;;;;;;;;;;5034960;28;20045;-28
2023/03/17 10:55:33;;;;;;;8.02;1.38;;;;;;;;;;5035094;28;20037;-29
2023/03/17 10:58:05;;;;;;;5.10;1.30;;;;;;;;;;5035157;28;20025;-28
2023/03/17 11:00:35;;;;;;;3.08;1.42;;;;;;;;;;5035071;28;20032;-28
2023/03/17 11:03:11;;;;;;;4.97;1.40;;;;;;;;;;5034973;28;20042;-28
2023/03/17 11:05:39;;;;;;;3.17;1.40;;;;;;;;;;5029325;28;20399;-28
2023/03/17 11:08:11;;;;;;;6.30;1.77;;;;;;;;;;5025857;28;20099;-28
2023/03/17 11:10:37;;;;;;;;;;;;;;;;;;5018698;28;20145;-29
2023/03/17 11:13:04;;;;;;;4.50;1.77;;;;;;;;;;5029555;28;19917;-28
2023/03/17 11:15:37;;;;;;;4.90;1.92;;;;;;;;;;5033140;28;20057;-28
2023/03/17 11:18:03;;;;;;;;;;;;;;;;;;5034920;28;20030;-31
2023/03/17 11:20:48;;;;;;;14.10;2.50;;;;;;;;;;5023645;28;19956;-31
2023/03/17 11:23:21;;;;;;;10.70;2.30;;;;;;;;;;5022754;28;20394;-30
2023/03/17 11:25:48;;;;;;;;;;;;;;;;;;5025538;28;20121;-30
2023/03/17 11:28:23;;;;;;;11.77;2.08;;;;;;;;;;5020223;28;19919;-29
2023/03/17 11:31:14;;;;;;;11.38;2.28;;;;;;;;;;5019959;28;20080;-27
2023/03/17 11:33:58;;;;;;;91.85;8.45;;;;;;;;;;5015698;28;20064;-29
2023/03/17 11:36:28;;;;;;;32.70;3.53;;;;;;;;;;5023495;28;20044;-29
2023/03/17 11:38:58;;;;;;;16.02;2.40;;;;;;;;;;5024779;28;20029;-29
2023/03/17 11:41:28;;;;;;;9.35;2.40;;;;;;;;;;5028807;28;20040;-29
2023/03/17 11:44:07;;;;;;;8.07;2.03;;;;;;;;;;5024738;28;20037;-28
2023/03/17 11:46:36;;;;;;;7.93;1.60;;;;;;;;;;5025203;28;20159;-28
2023/03/17 11:49:03;;;;;;;25.50;2.47;;;;;;;;;;5020775;28;20026;-28
2023/03/17 11:51:40;;;;;;;11.55;1.70;;;;;;;;;;5014082;28;20511;-28
2023/03/17 11:54:09;;;;;;;10.43;1.70;;;;;;;;;;5021988;28;20063;-28
2023/03/17 11:56:42;;;;;;;10.05;1.83;;;;;;;;;;5013409;28;20092;-29
2023/03/17 11:59:30;;;;;;;6.93;1.85;;;;;;;;;;5022301;28;20077;-28
2023/03/17 12:02:03;;;;;;;1.92;1.20;;;;;;;;;;5013699;28;20026;-27
2023/03/17 12:04:36;;;;;;;5.25;1.40;;;;;;;;;;5022471;28;20116;-28
2023/03/17 12:07:06;;;;;;;4.35;1.38;;;;;;;;;;5026463;28;20480;-28
2023/03/17 12:09:48;;;;;;;3.53;1.42;;;;;;;;;;5015279;28;20030;-28
2023/03/17 12:12:18;;;;;;;3.80;1.30;;;;;;;;;;5028749;28;20037;-29
2023/03/17 12:14:47;;;;;;;2.85;1.35;;;;;;;;;;5052492;28;20032;-28
2023/03/17 12:17:14;;;;;;;2.17;1.27;;;;;;;;;;5052395;28;20029;-28
2023/03/17 12:19:54;;;;;;;1.95;1.10;;;;;;;;;;5051907;28;20602;-28
2023/03/17 12:22:47;;;;;;;3.67;1.50;;;;;;;;;;5052483;28;20024;-29
2023/03/17 12:25:17;;;;;;;2.53;1.20;;;;;;;;;;5050243;28;20049;-28
2023/03/17 12:27:52;;;;;;;6.35;1.30;;;;;;;;;;5052382;28;20067;-28
2023/03/17 12:30:23;;;;;;;4.20;1.05;;;;;;;;;;5052867;28;20082;-29
2023/03/17 12:33:14;;;;;;;3.43;1.00;;;;;;;;;;5052558;28;20124;-28
2023/03/17 12:35:42;;;;;;;3.58;1.23;;;;;;;;;;5024656;28;20041;-28
2023/03/17 12:38:29;;;;;;;4.03;1.10;;;;;;;;;;5052312;28;20067;-28
2023/03/17 12:40:56;;;;;;;3.13;1.00;;;;;;;;;;5052592;28;20056;-28
2023/03/17 12:43:26;;;;;;;3.97;1.25;;;;;;;;;;5052655;28;20043;-28
2023/03/17 12:45:55;;;;;;;2.85;1.20;;;;;;;;;;5052081;28;20074;-28
2023/03/17 12:48:28;;;;;;;9.23;1.33;;;;;;;;;;5040746;28;20112;-28
2023/03/17 12:51:08;;;;;;;3.63;1.08;;;;;;;;;;5049754;28;20565;-28
2023/03/17 12:53:40;;;;;;;2.78;1.30;;;;;;;;;;5051596;28;20029;-28
2023/03/17 12:56:19;;;;;;;6.50;1.27;;;;;;;;;;5041375;28;20079;-28
2023/03/17 12:58:48;;;;;;;4.78;1.30;;;;;;;;;;5051500;28;20039;-28
2023/03/17 13:01:21;;;;;;;1.10;0.90;;;;;;;;;;5037649;28;20380;-29
2023/03/17 13:04:04;;;;;;;3.50;1.13;;;;;;;;;;5051142;28;20040;-28
2023/03/17 13:06:31;;;;;;;;;;;;;;;;;;5051746;28;20033;-28
2023/03/17 13:09:17;;;;;;;3.83;1.50;;;;;;;;;;5050283;28;19959;-29
2023/03/17 13:11:45;;;;;;;6.82;2.45;;;;;;;;;;5051287;28;20103;-28
2023/03/17 13:14:40;;;;;;;3.47;1.65;;;;;;;;;;5050883;28;20102;-28
2023/03/17 13:17:16;;;;;;;5.25;1.70;;;;;;;;;;5050694;28;20573;-28
2023/03/17 13:19:55;;;;;;;4.10;1.17;;;;;;;;;;5051215;28;20044;-28
2023/03/17 13:22:22;;;;;;;3.10;1.20;;;;;;;;;;5051122;28;20037;-28
2023/03/17 13:24:53;;;;;;;3.97;1.25;;;;;;;;;;5049985;28;20395;-28
2023/03/17 13:27:32;;;;;;;3.28;1.20;;;;;;;;;;5024642;28;20055;-28
2023/03/17 13:30:21;;;;;;;5.80;1.30;;;;;;;;;;5050411;28;20068;-28
2023/03/17 13:32:58;;;;;;;4.32;1.42;;;;;;;;;;5050562;28;20044;-28
2023/03/17 13:35:27;;;;;;;4.93;1.35;;;;;;;;;;5050495;28;20086;-28
2023/03/17 13:38:06;;;;;;;5.22;1.77;;;;;;;;;;5050589;28;20387;-28
2023/03/17 13:40:35;;;;;;;3.08;1.60;;;;;;;;;;5051017;28;20115;-28
2023/03/17 13:43:12;;;;;;;4.35;1.80;;;;;;;;;;5049979;28;20037;-28
2023/03/17 13:45:43;;;;;;;6.55;1.67;;;;;;;;;;5050633;28;20029;-28
2023/03/17 13:48:28;;;;;;;7.15;2.30;;;;;;;;;;5039367;28;20384;-28
2023/03/17 13:51:17;;;;;;;6.78;1.85;;;;;;;;;;5030728;28;20057;-29
2023/03/17 13:53:47;;;;;;;5.47;2.00;;;;;;;;;;5029514;28;20136;-28
2023/03/17 13:56:21;;;;;;;8.77;2.00;;;;;;;;;;5049988;28;20123;-28
2023/03/17 13:59:07;;;;;;;12.95;2.58;;;;;;;;;;5051247;28;20389;-28
2023/03/17 14:01:47;;;;;;;12.20;2.60;;;;;;;;;;5049709;28;20036;-28
2023/03/17 14:04:37;;;;;;;12.50;2.67;;;;;;;;;;5051076;28;20040;-28
2023/03/17 14:07:10;;;;;;;43.17;4.15;;;;;;;;;;5050377;28;20108;-28
2023/03/17 14:09:37;;;;;;;24.30;3.58;;;;;;;;;;5051082;28;20033;-28
2023/03/17 14:12:12;;;;;;;10.38;2.90;;;;;;;;;;5050386;28;20505;-28
2023/03/17 14:14:51;;;;;;;7.88;2.47;;;;;;;;;;5050388;28;20029;-28
2023/03/17 14:17:24;;;;;;;10.35;2.17;;;;;;;;;;5049771;28;20033;-28
2023/03/17 14:20:18;;;;;;;5.70;2.15;;;;;;;;;;5049495;28;20395;-28
2023/03/17 14:22:47;;;;;;;9.82;2.78;;;;;;;;;;5048467;28;20029;-28
2023/03/17 14:25:16;;;;;;;14.85;2.70;;;;;;;;;;5049915;28;20561;-28
2023/03/17 14:27:45;;;;;;;13.02;2.70;;;;;;;;;;5045349;28;20020;-28
2023/03/17 14:30:23;;;;;;;15.30;2.72;;;;;;;;;;5017628;28;20178;-29
2023/03/17 14:32:52;;;;;;;12.68;3.65;;;;;;;;;;5046827;28;20044;-28
2023/03/17 14:35:20;;;;;;;15.00;3.03;;;;;;;;;;5048921;28;20029;-28
2023/03/17 14:37:47;;;;;;;14.75;3.45;;;;;;;;;;5045267;28;20037;-28
2023/03/17 14:40:26;;;;;;;14.20;3.35;;;;;;;;;;5048614;28;20079;-28
2023/03/17 14:42:53;;;;;;;10.88;2.88;;;;;;;;;;5049388;28;20049;-28
2023/03/17 14:45:31;;;;;;;15.85;3.28;;;;;;;;;;5045716;28;20045;-28
2023/03/17 14:47:58;;;;;;;15.30;3.95;;;;;;;;;;5047014;28;20041;-29
2023/03/17 14:50:27;;;;;;;15.55;4.15;;;;;;;;;;5048998;28;20033;-28
2023/03/17 14:52:55;;;;;;;17.95;3.72;;;;;;;;;;5043731;28;20045;-28
2023/03/17 14:55:22;;;;;;;14.43;4.30;;;;;;;;;;5048019;28;20107;-28